Time;durP1;ratioP1;P1;durP2;ratioP2;P2;SDS_P1;SDS_P2;PMS_P1;PMS_P2;Temp;Humidity;BMP_temperature;BMP_pressure;BME280_temperature;BME280_humidity;BME280_pressure;Samples;Min_cycle;Max_cycle;Signal;HPM_P1;HPM_P2
2022/07/18 04:01:32;;;;;;;;;;;;;;;;;;;;;
2022/07/18 04:22:40;;;;;;;3.75;2.38;;;12.50;99.90;;;-144.05;69.39;125687.94;5777697;24;20340;-86
2022/07/18 04:39:56;;;;;;;5.18;1.95;;;13.00;99.90;;;-144.05;67.67;125687.94;5645589;25;20086;-87
2022/07/18 05:00:08;;;;;;;;;;;;;;;;;;;;;
2022/07/18 05:07:12;;;;;;;5.72;2.63;;;14.10;99.90;;;-144.05;64.68;125687.94;5581353;25;20021;-89
2022/07/18 05:19:02;;;;;;;3.78;1.77;;;15.10;99.90;;;-144.05;62.01;125687.94;5913301;24;20025;-88
2022/07/18 05:22:57;;;;;;;;;;;;;;;;;;;;;
2022/07/18 06:05:39;;;;;;;10.30;3.05;;;19.60;99.90;;;-144.05;47.36;125687.94;6109396;23;20069;-87
2022/07/18 06:08:08;;;;;;;9.45;2.63;;;19.80;99.90;;;-144.05;46.95;125687.94;6106443;23;20075;-90
2022/07/18 06:10:39;;;;;;;8.93;2.35;;;20.20;99.90;;;-144.05;45.27;125687.94;6131287;23;20011;-89
2022/07/18 06:13:11;;;;;;;11.82;2.35;;;20.60;99.90;;;-144.05;44.46;125687.94;6106489;23;20409;-88
2022/07/18 06:16:12;;;;;;;6.90;2.05;;;21.00;99.90;;;-144.05;44.17;125687.94;6108287;23;20476;-88
2022/07/18 06:18:44;;;;;;;4.55;1.75;;;21.20;99.90;;;-144.05;43.52;125687.94;6105924;23;20002;-90
2022/07/18 06:21:10;;;;;;;6.53;2.00;;;21.60;99.90;;;-144.05;42.15;125687.94;6105365;23;20389;-88
2022/07/18 06:48:18;;;;;;;3.72;1.50;;;25.00;78.80;;;-144.05;31.29;125687.94;6128976;23;19925;-87
2022/07/18 06:55:32;;;;;;;7.25;1.55;;;25.30;75.20;;;-144.05;31.03;125687.94;6111362;23;20014;-88
2022/07/18 06:58:16;;;;;;;;;;;;;;;;;;;;;
2022/07/18 07:01:38;;;;;;;3.05;1.40;;;25.90;71.70;;;-144.05;30.05;125687.94;6136751;23;20026;-89
2022/07/18 07:05:21;;;;;;;;;;;;;;;;;;;;;
2022/07/18 07:09:02;;;;;;;4.88;1.05;;;26.30;66.00;;;-144.05;28.98;125687.94;6136026;23;20026;-88
2022/07/18 07:15:34;;;;;;;5.60;1.45;;;27.00;62.60;;;-144.05;27.97;125687.94;6124627;23;20484;-88
2022/07/18 07:19:22;;;;;;;4.95;1.27;;;27.30;59.60;;;-144.05;27.33;125687.94;6113295;23;20010;-88
2022/07/18 07:22:22;;;;;;;5.53;1.35;;;27.60;58.10;;;-144.05;27.53;125687.94;6017206;23;20015;-88
2022/07/18 07:25:20;;;;;;;2.53;1.20;;;27.70;57.80;;;-144.05;26.83;125687.94;6052218;23;20014;-89
2022/07/18 07:28:23;;;;;;;5.63;1.27;;;28.00;56.50;;;-144.05;27.07;125687.94;6115595;23;20010;-87
2022/07/18 07:31:07;;;;;;;6.57;1.05;;;27.90;56.00;;;-144.05;26.85;125687.94;6111802;23;20010;-88
2022/07/18 07:37:58;;;;;;;4.38;1.20;;;28.70;55.00;;;-144.05;25.82;125687.94;6078363;23;20023;-87
2022/07/18 07:41:15;;;;;;;3.10;1.08;;;29.00;54.10;;;-144.05;26.46;125687.94;6086915;23;20010;-86
2022/07/18 07:44:31;;;;;;;3.58;1.13;;;29.10;53.00;;;-144.05;25.80;125687.94;6038543;23;20014;-88
2022/07/18 07:47:51;;;;;;;3.83;1.30;;;29.40;52.50;;;-144.05;25.12;125687.94;6110818;23;20014;-88
2022/07/18 07:51:32;;;;;;;3.78;0.90;;;29.60;50.80;;;-144.05;25.72;125687.94;6062009;23;20055;-88
2022/07/18 07:55:22;;;;;;;3.75;1.15;;;29.70;52.10;;;-144.05;25.17;125687.94;6060979;23;20017;-87
2022/07/18 07:58:43;;;;;;;;;;;;;;;;;;;;;
2022/07/18 08:02:18;;;;;;;2.00;1.00;;;29.70;50.30;;;-144.05;25.37;125687.94;6090402;23;20022;-87
2022/07/18 08:10:27;;;;;;;3.65;1.25;;;29.80;49.90;;;-144.05;24.59;125687.94;6009688;23;20442;-87
2022/07/18 08:13:19;;;;;;;3.40;1.00;;;30.30;49.70;;;-144.05;25.24;125687.94;6072224;23;20197;-86
2022/07/18 08:20:05;;;;;;;4.28;1.02;;;30.50;47.80;;;-144.05;24.34;125687.94;6001173;23;20039;-87
2022/07/18 08:27:21;;;;;;;4.20;1.58;;;30.90;47.60;;;-144.05;24.26;125687.94;6127677;23;20006;-90
2022/07/18 08:30:37;;;;;;;3.42;1.13;;;30.90;48.40;;;-144.05;24.38;125687.94;6064159;23;20016;-89
2022/07/18 08:33:36;;;;;;;2.67;1.30;;;30.70;47.10;;;-144.05;24.11;125687.94;6070085;23;20005;-88
2022/07/18 08:37:18;;;;;;;;;;;;;;;;;;;;;
2022/07/18 08:40:26;;;;;;;6.18;1.52;;;31.50;47.80;;;-144.05;23.65;125687.94;6111382;23;20033;-88
2022/07/18 08:43:44;;;;;;;6.53;1.20;;;31.90;45.90;;;-144.05;23.23;125687.94;6108113;23;20006;-89
2022/07/18 08:49:56;;;;;;;2.67;0.90;;;32.20;44.90;;;-144.05;23.18;125687.94;6128669;23;20022;-88
2022/07/18 08:58:18;;;;;;;2.75;0.90;;;32.20;45.00;;;-144.05;22.79;125687.94;6044682;23;20022;-86
2022/07/18 09:08:37;;;;;;;2.92;1.00;;;32.80;41.70;;;-144.05;22.49;125687.94;6136683;23;20025;-91
2022/07/18 09:12:03;;;;;;;3.03;1.02;;;32.80;42.50;;;-144.05;22.47;125687.94;6107726;23;20048;-88
2022/07/18 09:15:27;;;;;;;4.32;1.08;;;32.20;41.00;;;-144.05;22.39;125687.94;6073169;23;20030;-86
2022/07/18 09:18:37;;;;;;;1.92;0.80;;;32.40;43.30;;;-144.05;22.68;125687.94;5989274;23;20145;-87
2022/07/18 09:21:26;;;;;;;4.93;1.10;;;32.40;42.10;;;-144.05;22.36;125687.94;6020694;23;20059;-90
2022/07/18 09:25:03;;;;;;;;;;;;;;;;;;;;;
2022/07/18 09:29:11;;;;;;;2.13;0.88;;;32.40;41.80;;;-144.05;22.21;125687.94;5966521;24;20039;-88
2022/07/18 09:32:23;;;;;;;1.42;1.00;;;33.00;43.40;;;-144.05;21.51;125687.94;5979705;24;20080;-89
2022/07/18 09:35:33;;;;;;;3.10;1.25;;;33.00;38.90;;;-144.05;21.88;125687.94;5988523;24;20012;-88
2022/07/18 09:38:48;;;;;;;2.35;1.30;;;32.90;39.90;;;-144.05;22.40;125687.94;5995920;23;20011;-90
2022/07/18 09:41:32;;;;;;;2.60;1.10;;;32.90;41.40;;;-144.05;22.35;125687.94;6135684;23;20002;-88
2022/07/18 09:45:09;;;;;;;2.78;1.10;;;32.80;41.20;;;-144.05;21.11;125687.94;6133528;23;20013;-88
2022/07/18 09:56:45;;;;;;;1.45;0.93;;;33.70;39.30;;;-144.05;21.34;125687.94;5914844;24;20036;-88
2022/07/18 10:00:08;;;;;;;2.70;1.20;;;33.60;39.20;;;-144.05;21.09;125687.94;5921764;24;20020;-87
2022/07/18 10:04:16;;;;;;;;;;;;;;;;;;;;;
2022/07/18 10:06:59;;;;;;;1.83;1.08;;;33.60;38.00;;;-144.05;21.22;125687.94;5986750;24;20016;-88
2022/07/18 10:09:34;;;;;;;3.83;1.67;;;33.80;38.60;;;-144.05;21.00;125687.94;6065110;23;20024;-87
2022/07/18 10:12:26;;;;;;;;;;;33.50;36.90;;;-144.05;21.17;125687.94;6146748;23;20243;-90
2022/07/18 10:15:02;;;;;;;5.03;1.60;;;33.80;38.70;;;-144.05;20.54;125687.94;6136877;23;19909;-89
2022/07/18 10:18:37;;;;;;;;;;;34.00;37.00;;;-144.05;19.95;125687.94;6135345;23;20013;-91
2022/07/18 10:21:43;;;;;;;2.67;1.05;;;34.50;38.30;;;-144.05;20.49;125687.94;6091295;23;19915;-91
2022/07/18 10:24:11;;;;;;;2.13;1.15;;;34.80;37.50;;;-144.05;20.13;125687.94;6107741;23;20010;-88
2022/07/18 10:28:07;;;;;;;1.85;1.30;;;34.90;35.50;;;-144.05;19.84;125687.94;6105856;23;20009;-90
2022/07/18 10:30:53;;;;;;;1.52;0.95;;;34.70;35.30;;;-144.05;20.76;125687.94;6137628;23;20020;-87
2022/07/18 10:34:14;;;;;;;2.88;1.80;;;34.80;36.70;;;-144.05;20.52;125687.94;6107556;23;20010;-88
2022/07/18 10:41:13;;;;;;;1.92;1.10;;;34.80;37.30;;;-144.05;20.08;125687.94;6075111;23;20003;-91
2022/07/18 10:44:31;;;;;;;2.10;1.30;;;34.80;35.50;;;-144.05;20.33;125687.94;6130521;23;20037;-90
2022/07/18 10:47:31;;;;;;;2.78;1.40;;;35.00;37.90;;;-144.05;19.55;125687.94;6107541;23;20270;-86
2022/07/18 10:50:29;;;;;;;5.88;1.60;;;34.90;34.30;;;-144.05;20.78;125687.94;6132656;23;20427;-89
2022/07/18 10:53:00;;;;;;;1.38;1.20;;;34.90;37.00;;;-144.05;20.13;125687.94;6136444;23;20034;-90
2022/07/18 10:55:28;;;;;;;4.97;1.50;;;35.20;37.00;;;-144.05;19.70;125687.94;6134387;23;20009;-86
2022/07/18 10:57:54;;;;;;;2.22;1.50;;;35.50;34.90;;;-144.05;20.57;125687.94;6135839;23;20439;-89
2022/07/18 11:00:23;;;;;;;3.83;1.48;;;35.90;37.70;;;-144.05;20.12;125687.94;6111778;23;20006;-89
2022/07/18 11:03:29;;;;;;;6.13;1.70;;;36.00;35.90;;;-144.05;19.73;125687.94;6109762;23;20016;-89
2022/07/18 11:06:03;;;;;;;1.98;1.35;;;36.20;35.50;;;-144.05;19.91;125687.94;6135826;23;20072;-90
2022/07/18 11:08:52;;;;;;;3.53;1.70;;;36.30;35.80;;;-144.05;19.47;125687.94;6134784;23;20016;-89
2022/07/18 11:11:36;;;;;;;4.90;1.40;;;36.30;34.10;;;-144.05;19.07;125687.94;6105654;23;20021;-88
2022/07/18 11:14:30;;;;;;;1.75;1.42;;;36.10;33.30;;;-144.05;19.42;125687.94;6132478;23;20017;-90
2022/07/18 11:17:14;;;;;;;3.25;1.42;;;36.20;34.20;;;-144.05;19.63;125687.94;6133580;23;20006;-88
2022/07/18 11:19:42;;;;;;;2.72;1.30;;;36.00;34.50;;;-144.05;19.21;125687.94;6137907;23;20012;-90
2022/07/18 11:22:46;;;;;;;2.60;1.50;;;35.60;32.90;;;-144.05;19.60;125687.94;6141888;23;20272;-88
2022/07/18 11:25:13;;;;;;;2.40;1.23;;;35.60;33.80;;;-144.05;19.90;125687.94;6114627;23;20022;-90
2022/07/18 11:28:11;;;;;;;2.58;1.50;;;35.70;35.30;;;-144.05;19.48;125687.94;6114655;23;20053;-88
2022/07/18 11:30:43;;;;;;;3.33;1.15;;;35.90;33.80;;;-144.05;19.63;125687.94;6111949;23;20006;-87
2022/07/18 11:37:13;;;;;;;3.30;1.27;;;36.00;33.00;;;-144.05;19.15;125687.94;6116312;23;20017;-90
2022/07/18 11:39:43;;;;;;;3.33;1.30;;;36.00;33.20;;;-144.05;20.05;125687.94;6105645;23;20006;-88
2022/07/18 11:42:12;;;;;;;5.80;1.83;;;35.80;34.10;;;-144.05;19.64;125687.94;6131357;23;20245;-88
2022/07/18 11:44:40;;;;;;;2.15;1.23;;;35.70;33.50;;;-144.05;19.54;125687.94;6106354;23;20006;-88
2022/07/18 11:47:18;;;;;;;4.20;1.30;;;35.90;33.30;;;-144.05;20.31;125687.94;6133293;23;20034;-90
2022/07/18 11:49:56;;;;;;;3.42;1.17;;;36.00;34.40;;;-144.05;19.07;125687.94;6143928;23;20030;-88
2022/07/18 11:52:22;;;;;;;1.75;1.10;;;36.10;32.60;;;-144.05;19.71;125687.94;6129601;23;20027;-89
2022/07/18 11:54:48;;;;;;;2.83;1.42;;;35.90;34.20;;;-144.05;19.96;125687.94;6131224;23;20106;-89
2022/07/18 11:57:28;;;;;;;2.80;1.45;;;35.80;34.50;;;-144.05;19.67;125687.94;6107724;23;20061;-89
2022/07/18 11:59:54;;;;;;;2.00;1.30;;;35.80;34.10;;;-144.05;20.08;125687.94;6135410;23;20002;-91
2022/07/18 12:03:14;;;;;;;3.33;1.23;;;35.90;34.90;;;-144.05;19.47;125687.94;6132819;23;20032;-88
2022/07/18 12:05:50;;;;;;;3.88;1.30;;;36.40;32.90;;;-144.05;19.31;125687.94;6132380;23;20006;-90
2022/07/18 12:08:41;;;;;;;5.18;1.58;;;36.20;33.20;;;-144.05;19.35;125687.94;6108158;23;20060;-89
2022/07/18 12:11:35;;;;;;;2.30;1.05;;;35.90;32.20;;;-144.05;19.64;125687.94;6134159;23;20273;-89
2022/07/18 12:14:07;;;;;;;2.78;1.40;;;36.10;34.40;;;-144.05;19.59;125687.94;6110167;23;20010;-89
2022/07/18 12:16:42;;;;;;;2.75;1.17;;;36.10;33.70;;;-144.05;19.64;125687.94;6110373;23;20073;-90
2022/07/18 12:19:31;;;;;;;1.50;1.00;;;35.90;33.40;;;-144.05;19.68;125687.94;6117987;23;20016;-86
2022/07/18 12:22:12;;;;;;;4.18;1.40;;;35.80;33.40;;;-144.05;19.23;125687.94;6115203;23;20014;-86
2022/07/18 12:24:56;;;;;;;4.75;1.33;;;35.90;33.10;;;-144.05;19.18;125687.94;6143138;23;20061;-89
2022/07/18 12:27:35;;;;;;;3.70;1.65;;;35.80;32.20;;;-144.05;19.45;125687.94;6134186;23;20010;-88
2022/07/18 12:30:18;;;;;;;2.13;1.17;;;35.80;33.30;;;-144.05;19.62;125687.94;6133302;23;20334;-88
2022/07/18 12:33:00;;;;;;;4.20;1.00;;;36.00;33.60;;;-144.05;19.56;125687.94;6129498;23;20013;-87
2022/07/18 12:35:33;;;;;;;4.53;1.30;;;36.20;33.70;;;-144.05;19.42;125687.94;6128975;23;20089;-87
2022/07/18 12:38:15;;;;;;;2.55;1.30;;;36.00;33.10;;;-144.05;19.49;125687.94;6130245;23;20037;-88
2022/07/18 12:41:01;;;;;;;4.38;1.20;;;36.20;33.80;;;-144.05;19.63;125687.94;6103878;23;20014;-88
2022/07/18 12:43:37;;;;;;;2.05;1.08;;;36.20;33.20;;;-144.05;19.49;125687.94;6131026;23;20417;-87
2022/07/18 12:46:10;;;;;;;2.40;0.80;;;36.40;34.00;;;-144.05;19.47;125687.94;6128085;23;20005;-87
2022/07/18 12:48:38;;;;;;;1.77;1.25;;;36.50;33.70;;;-144.05;19.27;125687.94;6104349;23;20349;-88
2022/07/18 12:51:09;;;;;;;3.30;1.10;;;36.70;33.50;;;-144.05;19.08;125687.94;6128265;23;20195;-89
2022/07/18 12:53:41;;;;;;;5.55;1.40;;;36.80;32.70;;;-144.05;19.23;125687.94;6128561;23;20010;-86
2022/07/18 12:56:08;;;;;;;1.63;0.98;;;36.40;32.20;;;-144.05;19.43;125687.94;6130250;23;20010;-89
2022/07/18 12:58:34;;;;;;;2.58;1.25;;;36.40;32.40;;;-144.05;19.11;125687.94;6128265;23;20089;-86
2022/07/18 13:01:00;;;;;;;1.52;1.10;;;36.40;32.30;;;-144.05;19.56;125687.94;6129148;23;20343;-87
2022/07/18 13:03:26;;;;;;;3.65;1.13;;;36.40;33.40;;;-144.05;19.45;125687.94;6104289;23;20009;-88
2022/07/18 13:05:52;;;;;;;3.05;1.05;;;36.60;33.00;;;-144.05;19.91;125687.94;6128602;23;20359;-89
2022/07/18 13:08:19;;;;;;;3.45;1.17;;;36.70;35.10;;;-144.05;19.49;125687.94;6103954;23;20009;-86
2022/07/18 13:10:46;;;;;;;2.42;1.08;;;37.20;33.90;;;-144.05;19.54;125687.94;6128357;23;20010;-86
2022/07/18 13:13:12;;;;;;;1.55;1.13;;;37.30;33.70;;;-144.05;19.36;125687.94;6103684;23;20103;-89
2022/07/18 13:15:39;;;;;;;2.75;1.20;;;37.50;33.20;;;-144.05;19.17;125687.94;6129163;23;20006;-88
2022/07/18 13:18:05;;;;;;;3.92;1.20;;;37.70;32.80;;;-144.05;18.94;125687.94;6127847;23;20006;-88
2022/07/18 13:20:32;;;;;;;2.08;1.10;;;38.00;32.60;;;-144.05;19.18;125687.94;6129439;23;20010;-89
2022/07/18 13:23:04;;;;;;;1.60;1.00;;;38.00;33.30;;;-144.05;19.00;125687.94;6128441;23;20009;-87
2022/07/18 13:25:32;;;;;;;3.03;1.13;;;37.70;31.80;;;-144.05;19.67;125687.94;6127746;23;20006;-88
2022/07/18 13:27:58;;;;;;;2.00;1.10;;;37.50;33.50;;;-144.05;19.55;125687.94;6127846;23;20013;-87
2022/07/18 13:30:24;;;;;;;2.45;1.20;;;37.50;33.60;;;-144.05;19.25;125687.94;6130760;23;20013;-88
2022/07/18 13:32:50;;;;;;;1.55;1.08;;;37.60;33.20;;;-144.05;19.07;125687.94;6131154;23;20084;-85
2022/07/18 13:35:17;;;;;;;5.53;1.63;;;37.50;32.60;;;-144.05;19.50;125687.94;6130633;23;20006;-88
2022/07/18 13:37:43;;;;;;;2.80;1.25;;;37.30;33.90;;;-144.05;19.43;125687.94;6132569;23;20006;-87
2022/07/18 13:40:12;;;;;;;2.47;1.13;;;37.50;33.50;;;-144.05;19.27;125687.94;6130509;23;20010;-89
2022/07/18 13:42:38;;;;;;;3.17;1.35;;;37.50;32.90;;;-144.05;19.17;125687.94;6129070;23;20020;-86
2022/07/18 13:45:06;;;;;;;2.25;1.10;;;37.50;32.60;;;-144.05;19.33;125687.94;6127203;23;20096;-88
2022/07/18 13:47:32;;;;;;;3.53;1.40;;;36.70;31.40;;;-144.05;20.38;125687.94;6126593;23;20010;-88
2022/07/18 13:49:58;;;;;;;5.30;1.10;;;36.60;34.70;;;-144.05;19.26;125687.94;6102065;23;20020;-89
2022/07/18 13:52:24;;;;;;;4.30;1.10;;;36.80;32.80;;;-144.05;19.42;125687.94;6126520;23;20503;-88
2022/07/18 13:54:54;;;;;;;3.55;1.10;;;36.60;32.70;;;-144.05;20.15;125687.94;6127002;23;20010;-87
2022/07/18 13:57:21;;;;;;;5.63;1.30;;;36.60;34.60;;;-144.05;19.42;125687.94;6126445;23;20038;-88
2022/07/18 13:59:47;;;;;;;3.20;1.40;;;36.60;32.40;;;-144.05;19.66;125687.94;6126936;23;20010;-87
2022/07/18 14:02:13;;;;;;;2.45;1.33;;;36.60;33.70;;;-144.05;19.43;125687.94;6126400;23;20117;-89
2022/07/18 14:04:39;;;;;;;2.03;0.80;;;36.50;33.00;;;-144.05;19.79;125687.94;6127725;23;20002;-88
2022/07/18 14:07:06;;;;;;;3.08;1.48;;;36.40;34.10;;;-144.05;19.79;125687.94;6126229;23;20092;-90
2022/07/18 14:09:32;;;;;;;2.83;1.13;;;36.50;34.20;;;-144.05;19.62;125687.94;6102389;23;20459;-89
2022/07/18 14:11:58;;;;;;;3.47;1.08;;;36.40;33.60;;;-144.05;19.30;125687.94;6128757;23;20013;-89
2022/07/18 14:14:24;;;;;;;3.95;1.17;;;36.50;33.00;;;-144.05;19.45;125687.94;6103007;23;20006;-89
2022/07/18 14:16:51;;;;;;;5.93;1.00;;;36.30;32.50;;;-144.05;19.69;125687.94;6129955;23;20009;-88
2022/07/18 14:19:19;;;;;;;4.55;1.33;;;36.40;33.60;;;-144.05;20.00;125687.94;6128343;23;20006;-88
2022/07/18 14:21:46;;;;;;;2.22;1.38;;;36.50;34.90;;;-144.05;20.16;125687.94;6127228;23;20038;-87
2022/07/18 14:24:12;;;;;;;1.88;1.10;;;36.60;35.80;;;-144.05;19.34;125687.94;6128247;23;20017;-87
2022/07/18 14:26:38;;;;;;;2.95;1.00;;;36.50;32.30;;;-144.05;19.32;125687.94;6103977;23;20010;-87
2022/07/18 14:29:04;;;;;;;1.83;1.13;;;36.30;32.90;;;-144.05;19.53;125687.94;6129016;23;20130;-86
2022/07/18 14:31:29;;;;;;;2.90;1.15;;;36.10;33.00;;;-144.05;19.61;125687.94;6129718;23;20013;-85
2022/07/18 14:33:56;;;;;;;6.10;1.23;;;36.00;33.40;;;-144.05;19.73;125687.94;6131713;23;20010;-87
2022/07/18 14:36:22;;;;;;;2.72;1.20;;;35.90;34.20;;;-144.05;19.85;125687.94;6133259;23;20018;-87
2022/07/18 14:38:48;;;;;;;2.22;0.98;;;35.90;34.20;;;-144.05;19.82;125687.94;6128217;23;20068;-86
2022/07/18 14:41:14;;;;;;;3.30;1.42;;;35.70;33.90;;;-144.05;19.68;125687.94;6130699;23;20077;-87
2022/07/18 14:43:40;;;;;;;3.10;1.50;;;35.60;33.60;;;-144.05;19.94;125687.94;6129611;23;20010;-88
2022/07/18 14:46:06;;;;;;;4.70;1.38;;;35.70;33.90;;;-144.05;19.95;125687.94;6130085;23;20101;-88
2022/07/18 14:48:32;;;;;;;3.45;1.20;;;35.80;34.00;;;-144.05;19.94;125687.94;6127335;23;20445;-87
2022/07/18 14:50:58;;;;;;;3.40;0.98;;;35.70;33.70;;;-144.05;19.94;125687.94;6127322;23;20334;-88
2022/07/18 14:53:24;;;;;;;2.08;1.10;;;35.50;33.60;;;-144.05;20.26;125687.94;6101812;23;20048;-87
2022/07/18 14:55:50;;;;;;;3.60;1.30;;;35.60;34.50;;;-144.05;20.31;125687.94;6133258;23;20074;-90
2022/07/18 14:58:16;;;;;;;2.95;1.02;;;35.50;34.70;;;-144.05;20.70;125687.94;6140849;23;20005;-88
2022/07/18 15:00:42;;;;;;;3.83;1.33;;;35.40;35.70;;;-144.05;20.33;125687.94;6150565;23;20082;-86
2022/07/18 15:03:07;;;;;;;1.33;0.95;;;35.40;34.40;;;-144.05;20.50;125687.94;6148797;23;20022;-89
2022/07/18 15:05:33;;;;;;;1.75;1.20;;;35.40;35.00;;;-144.05;20.86;125687.94;6143488;23;20017;-89
2022/07/18 15:07:59;;;;;;;3.00;1.40;;;35.30;36.00;;;-144.05;20.73;125687.94;6139109;23;20053;-89
2022/07/18 15:10:25;;;;;;;3.03;1.30;;;35.30;36.50;;;-144.05;20.25;125687.94;6137424;23;20025;-89
2022/07/18 15:12:51;;;;;;;2.28;1.50;;;35.50;35.60;;;-144.05;20.12;125687.94;6133247;23;20014;-88
2022/07/18 15:15:17;;;;;;;3.10;1.05;;;35.30;34.80;;;-144.05;20.33;125687.94;6130774;23;20085;-88
2022/07/18 15:17:43;;;;;;;2.42;1.10;;;35.20;35.00;;;-144.05;20.35;125687.94;6127582;23;20065;-87
2022/07/18 15:20:10;;;;;;;3.38;1.27;;;35.20;35.20;;;-144.05;20.52;125687.94;6128489;23;20017;-87
2022/07/18 15:22:36;;;;;;;2.95;1.00;;;35.10;36.50;;;-144.05;20.56;125687.94;6129004;23;20089;-89
2022/07/18 15:25:05;;;;;;;3.53;1.20;;;35.00;35.60;;;-144.05;20.55;125687.94;6128275;23;20077;-90
2022/07/18 15:27:32;;;;;;;2.53;1.05;;;35.00;35.70;;;-144.05;20.55;125687.94;6128021;23;20009;-87
2022/07/18 15:29:59;;;;;;;3.25;1.05;;;35.00;35.60;;;-144.05;20.52;125687.94;6103087;23;20013;-91
2022/07/18 15:32:25;;;;;;;2.83;0.70;;;35.00;35.20;;;-144.05;20.71;125687.94;6129383;23;20058;-88
2022/07/18 15:34:51;;;;;;;3.95;1.00;;;35.00;36.10;;;-144.05;20.80;125687.94;6103158;23;20010;-90
2022/07/18 15:37:17;;;;;;;2.20;0.85;;;34.90;36.10;;;-144.05;20.38;125687.94;6129599;23;20452;-90
2022/07/18 15:39:42;;;;;;;2.35;1.02;;;34.90;35.10;;;-144.05;20.69;125687.94;6128627;23;20034;-90
2022/07/18 15:42:08;;;;;;;2.47;1.08;;;34.80;35.70;;;-144.05;20.49;125687.94;6103731;23;20064;-90
2022/07/18 15:44:37;;;;;;;1.73;0.70;;;34.80;35.50;;;-144.05;20.43;125687.94;6128747;23;20069;-90
2022/07/18 15:47:08;;;;;;;3.08;0.93;;;34.70;34.80;;;-144.05;20.25;125687.94;6105318;23;20041;-88
2022/07/18 15:49:37;;;;;;;1.95;1.00;;;34.60;34.40;;;-144.05;20.23;125687.94;6132500;23;20010;-87
2022/07/18 15:52:06;;;;;;;1.92;0.82;;;34.60;34.40;;;-144.05;20.58;125687.94;6132238;23;20017;-86
2022/07/18 15:54:34;;;;;;;1.55;0.80;;;34.50;35.70;;;-144.05;20.63;125687.94;6132536;23;20097;-90
2022/07/18 15:57:02;;;;;;;2.60;0.93;;;34.40;35.50;;;-144.05;20.45;125687.94;6130457;23;20009;-87
2022/07/18 15:59:28;;;;;;;2.72;1.17;;;34.20;34.80;;;-144.05;21.13;125687.94;6131601;23;20269;-87
2022/07/18 16:01:54;;;;;;;2.95;1.08;;;34.10;36.50;;;-144.05;20.85;125687.94;6131151;23;20429;-86
2022/07/18 16:04:23;;;;;;;2.28;1.30;;;34.00;35.80;;;-144.05;21.05;125687.94;6129985;23;20010;-88
2022/07/18 16:06:49;;;;;;;3.33;1.13;;;33.80;36.10;;;-144.05;21.60;125687.94;6131865;23;20038;-88
2022/07/18 16:09:15;;;;;;;2.30;1.13;;;33.60;37.70;;;-144.05;21.19;125687.94;6131631;23;20010;-89
2022/07/18 16:11:41;;;;;;;2.75;1.00;;;33.40;36.50;;;-144.05;21.51;125687.94;6129673;23;20459;-89
2022/07/18 16:14:11;;;;;;;2.40;0.98;;;33.30;37.00;;;-144.05;21.82;125687.94;6131015;23;20002;-87
2022/07/18 16:16:40;;;;;;;2.00;1.10;;;33.20;37.80;;;-144.05;21.46;125687.94;6130662;23;20085;-88
2022/07/18 16:19:09;;;;;;;2.42;0.93;;;33.00;37.00;;;-144.05;21.38;125687.94;6129379;23;20021;-88
2022/07/18 16:21:37;;;;;;;6.18;1.20;;;33.00;36.80;;;-144.05;21.49;125687.94;6130177;23;20014;-86
2022/07/18 16:24:05;;;;;;;2.63;1.42;;;32.90;37.20;;;-144.05;21.66;125687.94;6129236;23;20459;-88
2022/07/18 16:26:31;;;;;;;4.22;1.33;;;32.90;37.50;;;-144.05;22.04;125687.94;6129718;23;20010;-87
2022/07/18 16:28:57;;;;;;;1.98;1.20;;;32.80;39.20;;;-144.05;22.33;125687.94;6129679;23;20141;-89
2022/07/18 16:31:23;;;;;;;4.03;1.05;;;32.70;39.40;;;-144.05;21.62;125687.94;6130956;23;20014;-89
2022/07/18 16:33:50;;;;;;;2.08;1.17;;;32.70;37.40;;;-144.05;22.14;125687.94;6128499;23;20010;-87
2022/07/18 16:36:16;;;;;;;2.00;1.23;;;32.70;38.70;;;-144.05;21.94;125687.94;6104492;23;20002;-86
2022/07/18 16:38:42;;;;;;;4.22;1.55;;;32.70;38.30;;;-144.05;21.87;125687.94;6105226;23;20006;-87
2022/07/18 16:41:09;;;;;;;4.28;1.20;;;32.60;37.60;;;-144.05;21.80;125687.94;6104922;23;20572;-85
2022/07/18 16:43:36;;;;;;;2.83;1.25;;;32.50;37.50;;;-144.05;21.81;125687.94;6130866;23;20014;-85
2022/07/18 16:46:02;;;;;;;2.55;1.20;;;32.40;37.70;;;-144.05;21.99;125687.94;6136075;23;20101;-87
2022/07/18 16:48:28;;;;;;;3.35;1.23;;;32.30;38.60;;;-144.05;22.95;125687.94;6129163;23;20020;-88
2022/07/18 16:50:55;;;;;;;3.88;1.30;;;32.10;40.40;;;-144.05;22.92;125687.94;6104808;23;20010;-88
2022/07/18 16:53:21;;;;;;;4.90;1.50;;;32.00;40.10;;;-144.05;22.80;125687.94;6130750;23;20028;-89
2022/07/18 16:55:48;;;;;;;2.63;1.40;;;31.90;40.10;;;-144.05;23.14;125687.94;6137818;23;20010;-86
2022/07/18 16:58:14;;;;;;;2.05;1.40;;;31.70;40.70;;;-144.05;23.24;125687.94;6122847;23;20006;-88
2022/07/18 17:00:40;;;;;;;2.67;1.23;;;31.60;40.40;;;-144.05;23.32;125687.94;6139472;23;20010;-88
2022/07/18 17:03:06;;;;;;;3.25;1.02;;;31.40;40.90;;;-144.05;23.39;125687.94;6128197;23;20010;-87
2022/07/18 17:05:33;;;;;;;1.42;1.02;;;31.30;41.00;;;-144.05;23.06;125687.94;6128329;23;20010;-87
2022/07/18 17:07:59;;;;;;;4.55;1.42;;;31.20;40.40;;;-144.05;23.36;125687.94;6128211;23;20059;-89
2022/07/18 17:10:25;;;;;;;3.60;1.27;;;31.20;42.00;;;-144.05;23.49;125687.94;6128489;23;20325;-87
2022/07/18 17:12:52;;;;;;;6.43;1.70;;;31.00;41.00;;;-144.05;23.43;125687.94;6129959;23;20002;-87
2022/07/18 17:15:19;;;;;;;2.17;1.20;;;31.00;41.00;;;-144.05;24.21;125687.94;6128535;23;20041;-86
2022/07/18 17:17:47;;;;;;;1.88;1.23;;;31.00;43.10;;;-144.05;24.18;125687.94;6132460;23;20054;-89
2022/07/18 17:20:15;;;;;;;2.17;1.13;;;30.90;42.50;;;-144.05;23.97;125687.94;6111543;23;20016;-87
2022/07/18 17:22:43;;;;;;;2.00;1.00;;;30.80;41.80;;;-144.05;23.72;125687.94;6140006;23;20013;-88
2022/07/18 17:25:14;;;;;;;3.15;1.10;;;30.70;41.40;;;-144.05;24.14;125687.94;6144675;23;20010;-88
2022/07/18 17:27:40;;;;;;;3.40;1.23;;;30.60;42.60;;;-144.05;24.64;125687.94;6149951;23;20002;-87
2022/07/18 17:30:07;;;;;;;3.40;1.15;;;30.50;43.70;;;-144.05;24.40;125687.94;6149315;23;20060;-87
2022/07/18 17:32:36;;;;;;;3.05;1.17;;;30.40;42.90;;;-144.05;24.60;125687.94;6124129;23;20062;-87
2022/07/18 17:35:03;;;;;;;2.60;1.10;;;30.30;44.00;;;-144.05;24.60;125687.94;6148710;23;20051;-87
2022/07/18 17:37:31;;;;;;;2.63;1.25;;;30.20;43.10;;;-144.05;24.71;125687.94;6148688;23;20017;-87
2022/07/18 17:39:59;;;;;;;5.82;1.23;;;30.10;44.00;;;-144.05;24.32;125687.94;6148201;23;20005;-88
2022/07/18 17:42:26;;;;;;;5.90;1.63;;;30.00;43.20;;;-144.05;24.13;125687.94;6148071;23;20013;-87
2022/07/18 17:44:52;;;;;;;2.97;1.17;;;30.10;42.20;;;-144.05;24.41;125687.94;6122497;23;20006;-87
2022/07/18 17:47:19;;;;;;;3.15;1.00;;;30.00;43.10;;;-144.05;24.70;125687.94;6145395;23;20408;-87
2022/07/18 17:49:45;;;;;;;2.58;1.00;;;29.80;43.90;;;-144.05;24.80;125687.94;6143962;23;20006;-88
2022/07/18 17:52:12;;;;;;;2.47;1.10;;;29.70;43.50;;;-144.05;24.75;125687.94;6117836;23;20025;-87
2022/07/18 17:54:39;;;;;;;1.45;1.08;;;29.50;43.50;;;-144.05;25.14;125687.94;6140553;23;20012;-89
2022/07/18 17:57:05;;;;;;;3.45;1.25;;;29.40;44.60;;;-144.05;25.17;125687.94;6115774;23;20002;-89
2022/07/18 17:59:31;;;;;;;2.72;1.20;;;29.30;44.70;;;-144.05;25.00;125687.94;6138711;23;20033;-88
2022/07/18 18:01:57;;;;;;;2.10;1.20;;;29.20;44.40;;;-144.05;24.95;125687.94;6110036;23;20010;-88
2022/07/18 18:04:23;;;;;;;2.67;0.85;;;29.10;44.20;;;-144.05;25.11;125687.94;6112397;23;20644;-88
2022/07/18 18:06:50;;;;;;;2.75;1.08;;;29.00;44.40;;;-144.05;25.38;125687.94;6109875;23;20037;-87
2022/07/18 18:09:16;;;;;;;2.92;1.23;;;28.90;45.00;;;-144.05;25.63;125687.94;6134600;23;20416;-88
2022/07/18 18:11:42;;;;;;;2.22;1.40;;;28.80;45.70;;;-144.05;26.03;125687.94;6133290;23;20422;-88
2022/07/18 18:14:08;;;;;;;2.55;1.15;;;28.70;47.40;;;-144.05;25.24;125687.94;6132700;23;20006;-87